createdAt,value
2023-01-08T00:01:12.142Z,99502.31
2023-01-08T00:03:40.812Z,99501.41
2023-01-08T00:06:13.440Z,99485.59
2023-01-08T00:08:40.979Z,99479.47
2023-01-08T00:11:08.194Z,99475.94
2023-01-08T00:13:35.679Z,99479.47
2023-01-08T00:16:10.239Z,99481.22
2023-01-08T00:18:37.624Z,99482.09
2023-01-08T00:21:05.266Z,99468.03
2023-01-08T00:23:32.787Z,99446.94
2023-01-08T00:26:10.629Z,99442.56
2023-01-08T00:28:38.890Z,99449.59
2023-01-08T00:31:12.511Z,99443.44
2023-01-08T00:33:41.122Z,99441.69
2023-01-08T00:36:12.200Z,99441.69
2023-01-08T00:38:39.400Z,99445.19
2023-01-08T00:41:06.768Z,99455.72
2023-01-08T00:43:34.230Z,99456.59
2023-01-08T00:46:01.560Z,99453.97
2023-01-08T00:48:28.770Z,99448.69
2023-01-08T00:50:56.045Z,99445.16
2023-01-08T00:53:23.222Z,99439.91
2023-01-08T00:55:50.477Z,99432.88
2023-01-08T00:58:18.250Z,99426.72
2023-01-08T01:00:45.244Z,99428.47
2023-01-08T01:03:12.236Z,99423.22
2023-01-08T01:05:39.214Z,99420.53
2023-01-08T01:08:06.239Z,99419.66
2023-01-08T01:10:33.321Z,99437.22
2023-01-08T01:13:00.332Z,99435.47
2023-01-08T01:15:27.354Z,99428.44
2023-01-08T01:17:54.430Z,99430.19
2023-01-08T01:20:21.671Z,99432.81
2023-01-08T01:22:48.707Z,99435.44
2023-01-08T01:25:15.993Z,99439.81
2023-01-08T01:27:43.160Z,99438.06
2023-01-08T01:30:11.011Z,99444.19
2023-01-08T01:32:38.011Z,99438.94
2023-01-08T01:35:05.663Z,99456.47
2023-01-08T01:37:33.364Z,99462.63
2023-01-08T01:40:00.379Z,99458.22
2023-01-08T01:42:43.955Z,99456.44
2023-01-08T01:45:18.244Z,99468.75
2023-01-08T01:47:56.182Z,99462.59
2023-01-08T01:50:41.261Z,99461.75
2023-01-08T01:53:21.831Z,99463.53
2023-01-08T01:55:49.210Z,99451.25
2023-01-08T01:58:29.115Z,99455.63
2023-01-08T02:00:59.322Z,99455.63
2023-01-08T02:03:31.154Z,99448.59
2023-01-08T02:06:11.075Z,99460.88
2023-01-08T02:09:10.711Z,99461.78
2023-01-08T02:11:46.614Z,99459.13
2023-01-08T02:14:19.972Z,99464.38
2023-01-08T02:16:58.378Z,99458.22
2023-01-08T02:19:53.721Z,99469.59
2023-01-08T02:22:32.803Z,99469.59
2023-01-08T02:25:10.121Z,99472.25
2023-01-08T02:27:40.690Z,99464.34
2023-01-08T02:33:02.248Z,99461.72
2023-01-08T02:35:41.444Z,99456.44
2023-01-08T02:38:14.980Z,99459.06
2023-01-08T02:41:09.384Z,99455.53
2023-01-08T02:43:52.675Z,99452.03
2023-01-08T02:46:27.089Z,99446.75
2023-01-08T02:49:06.179Z,99454.63
2023-01-08T02:51:43.495Z,99453.75
2023-01-08T02:54:19.138Z,99444.97
2023-01-08T02:56:58.435Z,99434.44
2023-01-08T02:59:28.388Z,99431.75
2023-01-08T03:01:56.771Z,99410.72
2023-01-08T03:04:26.317Z,99400.16
2023-01-08T03:06:53.416Z,99393.16
2023-01-08T03:09:21.291Z,99390.50
2023-01-08T03:12:00.497Z,99395.78
2023-01-08T03:14:38.115Z,99401.91
2023-01-08T03:17:19.058Z,99396.63
2023-01-08T03:20:08.726Z,99405.41
2023-01-08T03:22:41.227Z,99391.38
2023-01-08T03:25:10.159Z,99388.75
2023-01-08T03:27:43.667Z,99386.09
2023-01-08T03:30:12.430Z,99392.25
2023-01-08T03:32:41.570Z,99399.28
2023-01-08T03:35:12.944Z,99393.16
2023-01-08T03:37:45.466Z,99391.41
2023-01-08T03:40:22.154Z,99387.03
2023-01-08T03:42:49.451Z,99375.63
2023-01-08T03:45:16.632Z,99379.13
2023-01-08T03:47:45.856Z,99380.00
2023-01-08T03:50:21.919Z,99374.75
2023-01-08T03:52:48.958Z,99377.41
2023-01-08T03:55:16.068Z,99378.28
2023-01-08T03:57:43.036Z,99376.56
2023-01-08T04:00:11.214Z,99372.16
2023-01-08T04:02:38.352Z,99371.28
2023-01-08T04:05:05.966Z,99364.28
2023-01-08T04:07:32.919Z,99367.78
2023-01-08T04:09:59.848Z,99373.91
2023-01-08T04:12:26.802Z,99367.78
2023-01-08T04:14:53.821Z,99365.13
2023-01-08T04:17:20.857Z,99364.22
2023-01-08T04:19:47.847Z,99368.59
2023-01-08T04:22:14.879Z,99365.97
2023-01-08T04:24:41.791Z,99364.22
2023-01-08T04:27:08.776Z,99365.97
2023-01-08T04:29:36.049Z,99364.19
2023-01-08T04:32:03.053Z,99370.34
2023-01-08T04:34:30.043Z,99361.56
2023-01-08T04:36:57.060Z,99365.94
2023-01-08T04:39:24.024Z,99368.56
2023-01-08T04:41:50.975Z,99363.31
2023-01-08T04:44:17.945Z,99356.28
2023-01-08T04:46:44.883Z,99368.56
2023-01-08T04:49:14.156Z,99363.28
2023-01-08T04:51:41.159Z,99364.16
2023-01-08T04:54:08.776Z,99361.56
2023-01-08T04:56:35.832Z,99367.72
2023-01-08T04:59:03.085Z,99370.34
2023-01-08T05:01:30.307Z,99366.00
2023-01-08T05:04:06.571Z,99370.41
2023-01-08T05:06:33.758Z,99383.56
2023-01-08T05:09:01.034Z,99383.56
2023-01-08T05:11:28.217Z,99376.56
2023-01-08T05:13:56.567Z,99381.81
2023-01-08T05:16:24.141Z,99380.09
2023-01-08T05:18:51.308Z,99386.25
2023-01-08T05:21:18.507Z,99387.16
2023-01-08T05:23:47.951Z,99381.00
2023-01-08T05:26:16.642Z,99391.56
2023-01-08T05:28:43.993Z,99383.66
2023-01-08T05:31:11.836Z,99382.78
2023-01-08T05:33:39.566Z,99379.25
2023-01-08T05:36:12.389Z,99382.78
2023-01-08T05:38:40.317Z,99382.78
2023-01-08T05:41:08.596Z,99385.41
2023-01-08T05:43:36.526Z,99378.34
2023-01-08T05:46:04.802Z,99368.66
2023-01-08T05:48:35.213Z,99368.63
2023-01-08T05:51:03.781Z,99353.69
2023-01-08T05:53:34.546Z,99343.13
2023-01-08T05:56:09.222Z,99341.38
2023-01-08T05:58:36.815Z,99330.84
2023-01-08T06:01:15.907Z,99331.72
2023-01-08T06:03:43.152Z,99337.00
2023-01-08T06:06:11.443Z,99334.38
2023-01-08T06:08:38.683Z,99336.13
2023-01-08T06:11:11.170Z,99331.72
2023-01-08T06:13:44.625Z,99329.97
2023-01-08T06:16:12.784Z,99335.25
2023-01-08T06:18:40.071Z,99333.50
2023-01-08T06:21:07.339Z,99330.84
2023-01-08T06:23:34.434Z,99330.84
2023-01-08T06:26:04.282Z,99325.59
2023-01-08T06:28:32.367Z,99323.81
2023-01-08T06:31:01.103Z,99334.34
2023-01-08T06:33:29.045Z,99326.47
2023-01-08T06:36:00.064Z,99330.84
2023-01-08T06:38:27.051Z,99337.84
2023-01-08T06:40:54.078Z,99335.22
2023-01-08T06:43:24.007Z,99333.44
2023-01-08T06:45:55.600Z,99340.44
2023-01-08T06:48:22.601Z,99338.69
2023-01-08T06:50:49.621Z,99349.22
2023-01-08T06:53:16.834Z,99350.09
2023-01-08T06:55:43.888Z,99343.06
2023-01-08T06:58:12.705Z,99330.78
2023-01-08T07:00:40.257Z,99335.19
2023-01-08T07:03:07.442Z,99343.06
2023-01-08T07:05:35.600Z,99360.63
2023-01-08T07:08:02.714Z,99358.00
2023-01-08T07:10:31.409Z,99366.75
2023-01-08T07:12:58.877Z,99361.50
2023-01-08T07:15:25.995Z,99359.75
2023-01-08T07:17:53.160Z,99364.13
2023-01-08T07:20:20.255Z,99367.63
2023-01-08T07:25:21.274Z,99365.88
2023-01-08T07:27:49.898Z,99379.03
2023-01-08T07:30:28.912Z,99374.66
2023-01-08T07:33:03.287Z,99379.94
2023-01-08T07:35:30.552Z,99379.06
2023-01-08T07:37:57.674Z,99383.44
2023-01-08T07:40:24.966Z,99395.72
2023-01-08T07:43:04.104Z,99400.13
2023-01-08T07:45:31.536Z,99404.50
2023-01-08T07:47:59.321Z,99395.75
2023-01-08T07:50:27.208Z,99395.72
2023-01-08T07:53:00.947Z,99410.66
2023-01-08T07:55:30.322Z,99407.16
2023-01-08T07:57:57.295Z,99407.16
2023-01-08T08:00:24.314Z,99406.25
2023-01-08T08:02:51.448Z,99409.75
2023-01-08T08:05:18.560Z,99409.75
2023-01-08T08:07:45.789Z,99412.38
2023-01-08T08:10:13.081Z,99418.53
2023-01-08T08:12:40.141Z,99415.91
2023-01-08T08:15:08.587Z,99412.38
2023-01-08T08:17:35.660Z,99415.91
2023-01-08T08:20:02.782Z,99415.91
2023-01-08T08:22:30.486Z,99412.41
2023-01-08T08:24:57.689Z,99413.28
2023-01-08T08:27:24.846Z,99405.41
2023-01-08T08:29:51.946Z,99401.00
2023-01-08T08:32:19.037Z,99406.28
2023-01-08T08:34:46.184Z,99408.03
2023-01-08T08:37:13.688Z,99410.66
2023-01-08T08:39:40.877Z,99402.78
2023-01-08T08:42:08.037Z,99404.53
2023-01-08T08:44:35.091Z,99399.28
2023-01-08T08:47:02.202Z,99392.25
2023-01-08T08:49:29.210Z,99377.34
2023-01-08T08:51:56.254Z,99372.09
2023-01-08T08:54:23.271Z,99369.44
2023-01-08T08:56:50.300Z,99368.59
2023-01-08T08:59:17.552Z,99371.22
2023-01-08T09:01:44.876Z,99373.00
2023-01-08T09:04:14.884Z,99371.28
2023-01-08T09:06:41.842Z,99373.03
2023-01-08T09:09:09.239Z,99374.78
2023-01-08T09:11:36.414Z,99374.81
2023-01-08T09:14:03.790Z,99380.94
2023-01-08T09:16:30.851Z,99381.84
2023-01-08T09:18:57.773Z,99377.44
2023-01-08T09:21:27.971Z,99380.97
2023-01-08T09:23:54.924Z,99374.81
2023-01-08T09:26:21.936Z,99376.59
2023-01-08T09:28:48.895Z,99367.81
2023-01-08T09:31:15.912Z,99373.09
2023-01-08T09:33:43.066Z,99383.66
2023-01-08T09:36:11.688Z,99376.63
2023-01-08T09:38:38.933Z,99371.34
2023-01-08T09:41:47.067Z,99381.88
2023-01-08T09:44:27.035Z,99385.41
2023-01-08T09:46:56.273Z,99381.00
2023-01-08T09:49:48.914Z,99381.88
2023-01-08T09:52:16.764Z,99387.16
2023-01-08T09:54:44.391Z,99387.16
2023-01-08T09:57:19.592Z,99394.19
2023-01-08T09:59:48.328Z,99402.09
2023-01-08T10:02:24.587Z,99409.13
2023-01-08T10:05:01.509Z,99409.13
2023-01-08T10:07:30.557Z,99415.31
2023-01-08T10:09:57.560Z,99405.66
2023-01-08T10:12:33.090Z,99400.38
2023-01-08T10:15:07.560Z,99406.53
2023-01-08T10:17:41.677Z,99410.94
2023-01-08T10:20:35.681Z,99410.94
2023-01-08T10:23:15.951Z,99409.19
2023-01-08T10:25:58.167Z,99407.44
2023-01-08T10:28:31.880Z,99415.34
2023-01-08T10:31:08.948Z,99404.78
2023-01-08T10:33:49.445Z,99402.16
2023-01-08T10:36:23.742Z,99405.69
2023-01-08T10:38:59.488Z,99408.31
2023-01-08T10:41:27.336Z,99413.59
2023-01-08T10:44:07.736Z,99427.66
2023-01-08T10:46:45.021Z,99415.34
2023-01-08T10:49:23.958Z,99417.09
2023-01-08T10:51:55.682Z,99419.72
2023-01-08T10:54:38.652Z,99425.00
2023-01-08T10:57:25.943Z,99434.66
2023-01-08T10:59:53.695Z,99438.16
2023-01-08T11:02:39.427Z,99439.94
2023-01-08T11:05:11.283Z,99433.78
2023-01-08T11:07:40.387Z,99433.78
2023-01-08T11:10:21.678Z,99433.75
2023-01-08T11:12:55.387Z,99441.66
2023-01-08T11:15:22.387Z,99437.22
2023-01-08T11:17:50.559Z,99456.47
2023-01-08T11:20:31.434Z,99450.25
2023-01-08T11:23:24.382Z,99446.72
2023-01-08T11:26:13.049Z,99450.31
2023-01-08T11:28:57.259Z,99452.06
2023-01-08T11:32:03.663Z,99449.44
2023-01-08T11:34:52.271Z,99445.84
2023-01-08T11:37:29.229Z,99437.13
2023-01-08T11:39:58.072Z,99432.75
2023-01-08T11:42:45.099Z,99431.88
2023-01-08T11:45:21.243Z,99425.69
2023-01-08T11:48:44.943Z,99430.97
2023-01-08T11:51:52.259Z,99429.19
2023-01-08T11:54:52.323Z,99426.56
2023-01-08T11:57:46.370Z,99417.72
2023-01-08T12:00:22.760Z,99423.00
2023-01-08T12:03:02.791Z,99410.69
2023-01-08T12:06:10.598Z,99414.19
2023-01-08T12:09:14.207Z,99408.88
2023-01-08T12:11:51.270Z,99400.09
2023-01-08T12:14:19.643Z,99394.78
2023-01-08T12:16:55.905Z,99393.03
2023-01-08T12:19:59.718Z,99393.00
2023-01-08T12:22:47.804Z,99378.97
2023-01-08T12:25:33.195Z,99369.31
2023-01-08T12:28:18.780Z,99365.81
2023-01-08T12:31:30.530Z,99368.41
2023-01-08T12:34:35.066Z,99357.00
2023-01-08T12:37:35.033Z,99353.53
2023-01-08T12:40:46.001Z,99343.84
2023-01-08T12:43:57.039Z,99337.69
2023-01-08T12:46:28.747Z,99333.31
2023-01-08T12:48:57.943Z,99337.66
2023-01-08T12:51:55.264Z,99340.31
2023-01-08T12:54:49.354Z,99339.44
2023-01-08T12:57:39.694Z,99343.91
2023-01-08T13:00:34.159Z,99336.88
2023-01-08T13:03:15.037Z,99336.00
2023-01-08T13:05:43.665Z,99333.34
2023-01-08T13:08:35.195Z,99334.22
2023-01-08T13:11:04.968Z,99335.09
2023-01-08T13:13:34.647Z,99324.50
2023-01-08T13:16:12.103Z,99315.69
2023-01-08T13:18:39.424Z,99320.13
2023-01-08T13:21:11.095Z,99306.94
2023-01-08T13:23:38.463Z,99316.59
2023-01-08T13:26:06.992Z,99312.16
2023-01-08T13:28:51.529Z,99308.63
2023-01-08T13:31:21.672Z,99307.72
2023-01-08T13:33:52.735Z,99304.19
2023-01-08T13:36:22.918Z,99310.41
2023-01-08T13:39:11.827Z,99311.28
2023-01-08T13:41:55.428Z,99315.66
2023-01-08T13:44:42.487Z,99313.88
2023-01-08T13:47:42.729Z,99312.09
2023-01-08T13:50:24.236Z,99302.38
2023-01-08T13:53:03.516Z,99305.91
2023-01-08T13:55:40.322Z,99292.75
2023-01-08T13:58:20.096Z,99297.19
2023-01-08T14:00:56.408Z,99284.91
2023-01-08T14:03:27.426Z,99269.97
2023-01-08T14:06:28.324Z,99264.69
2023-01-08T14:09:04.188Z,99258.53
2023-01-08T14:11:47.852Z,99257.63
2023-01-08T14:14:19.066Z,99254.13
2023-01-08T14:16:49.167Z,99260.28
2023-01-08T14:19:21.785Z,99264.66
2023-01-08T14:22:01.674Z,99254.94
2023-01-08T14:24:28.752Z,99243.47
2023-01-08T14:27:01.000Z,99243.50
2023-01-08T14:29:30.975Z,99239.13
2023-01-08T14:32:01.294Z,99239.16
2023-01-08T14:34:33.012Z,99244.44
2023-01-08T14:37:00.083Z,99247.09
2023-01-08T14:39:34.989Z,99233.91
2023-01-08T14:42:49.658Z,99231.25
2023-01-08T14:45:31.600Z,99226.88
2023-01-08T14:48:15.029Z,99227.84
2023-01-08T14:51:07.364Z,99234.91
2023-01-08T14:53:38.770Z,99218.22
2023-01-08T14:56:07.637Z,99220.03
2023-01-08T14:58:41.376Z,99220.94
2023-01-08T15:01:23.208Z,99218.31
2023-01-08T15:03:53.883Z,99213.06
2023-01-08T15:06:30.505Z,99212.22
2023-01-08T15:09:05.292Z,99210.47
2023-01-08T15:11:35.188Z,99218.38
2023-01-08T15:14:14.693Z,99217.47
2023-01-08T15:16:43.400Z,99213.94
2023-01-08T15:19:22.759Z,99213.09
2023-01-08T15:21:57.981Z,99211.28
2023-01-08T15:24:39.930Z,99207.78
2023-01-08T15:27:10.623Z,99207.81
2023-01-08T15:29:50.168Z,99206.94
2023-01-08T15:32:17.681Z,99190.25
2023-01-08T15:34:46.878Z,99187.63
2023-01-08T15:37:17.722Z,99185.91
2023-01-08T15:39:44.831Z,99168.34
2023-01-08T15:42:44.148Z,99172.72
2023-01-08T15:45:21.327Z,99162.22
2023-01-08T15:47:48.578Z,99164.00
2023-01-08T15:50:15.996Z,99152.59
2023-01-08T15:52:44.373Z,99152.59
2023-01-08T15:55:34.675Z,99146.47
2023-01-08T15:58:19.686Z,99162.28
2023-01-08T16:00:47.290Z,99163.16
2023-01-08T16:03:15.748Z,99164.91
2023-01-08T16:05:43.721Z,99166.63
2023-01-08T16:08:13.235Z,99155.22
2023-01-08T16:10:40.575Z,99151.72
2023-01-08T16:13:11.647Z,99147.34
2023-01-08T16:15:39.515Z,99156.13
2023-01-08T16:18:06.890Z,99154.38
2023-01-08T16:20:36.483Z,99154.38
2023-01-08T16:23:05.316Z,99151.72
2023-01-08T16:25:32.438Z,99155.22
2023-01-08T16:27:59.539Z,99152.63
2023-01-08T16:30:27.971Z,99150.00
2023-01-08T16:32:55.035Z,99146.47
2023-01-08T16:35:22.196Z,99143.84
2023-01-08T16:37:49.331Z,99148.25
2023-01-08T16:40:20.039Z,99144.72
2023-01-08T16:42:47.082Z,99143.84
2023-01-08T16:45:17.086Z,99146.47
2023-01-08T16:47:44.069Z,99140.31
2023-01-08T16:50:13.520Z,99146.47
2023-01-08T16:52:40.711Z,99145.59
2023-01-08T16:55:08.410Z,99140.34
2023-01-08T16:57:35.412Z,99140.34
2023-01-08T17:00:02.884Z,99133.31
2023-01-08T17:02:29.972Z,99132.44
2023-01-08T17:04:56.988Z,99110.53
2023-01-08T17:07:23.971Z,99106.19
2023-01-08T17:09:51.011Z,99092.16
2023-01-08T17:12:22.605Z,99082.53
2023-01-08T17:14:50.989Z,99072.00
2023-01-08T17:17:18.166Z,99074.66
2023-01-08T17:19:45.314Z,99070.28
2023-01-08T17:22:12.456Z,99062.41
2023-01-08T17:24:40.026Z,99056.28
2023-01-08T17:27:07.167Z,99049.28
2023-01-08T17:29:34.563Z,99036.13
2023-01-08T17:32:01.640Z,99040.50
2023-01-08T17:34:28.732Z,99032.63
2023-01-08T17:36:55.913Z,99024.75
2023-01-08T17:39:22.967Z,99025.63
2023-01-08T17:42:08.659Z,99020.38
2023-01-08T17:44:35.758Z,99015.09
2023-01-08T17:47:02.752Z,99012.47
2023-01-08T17:49:31.208Z,99005.47
2023-01-08T17:51:58.358Z,99001.97
2023-01-08T17:54:25.491Z,98990.59
2023-01-08T17:56:54.025Z,98988.84
2023-01-08T17:59:21.695Z,98997.63
2023-01-08T18:01:51.470Z,98996.75
2023-01-08T18:04:18.981Z,98989.75
2023-01-08T18:06:46.168Z,99001.13
2023-01-08T18:09:13.326Z,99004.66
2023-01-08T18:11:41.806Z,98990.63
2023-01-08T18:14:26.219Z,98970.47
2023-01-08T18:17:13.740Z,98975.75
2023-01-08T18:19:41.164Z,98979.25
2023-01-08T18:22:08.306Z,98969.59
2023-01-08T18:24:35.540Z,98971.34
2023-01-08T18:27:03.100Z,98955.59
2023-01-08T18:29:30.372Z,98960.84
2023-01-08T18:31:57.857Z,98954.72
2023-01-08T18:34:25.037Z,98959.97
2023-01-08T18:36:52.028Z,98959.97
2023-01-08T18:39:19.159Z,98954.72
2023-01-08T18:42:04.559Z,98945.94
2023-01-08T18:44:31.599Z,98941.56
2023-01-08T18:46:58.668Z,98941.56
2023-01-08T18:49:27.539Z,98933.69
2023-01-08T18:51:54.655Z,98926.69
2023-01-08T18:54:21.747Z,98921.44
2023-01-08T18:56:48.774Z,98917.06
2023-01-08T18:59:15.771Z,98911.81
2023-01-08T19:01:42.932Z,98922.31
2023-01-08T19:04:19.110Z,98916.19
2023-01-08T19:06:46.902Z,98907.41
2023-01-08T19:09:16.068Z,98906.53
2023-01-08T19:11:43.614Z,98905.66
2023-01-08T19:14:13.020Z,98904.78
2023-01-08T19:16:41.085Z,98902.16
2023-01-08T19:19:08.113Z,98892.53
2023-01-08T19:21:35.188Z,98885.53
2023-01-08T19:24:02.364Z,98891.66
2023-01-08T19:26:29.433Z,98876.78
2023-01-08T19:28:56.413Z,98885.50
2023-01-08T19:31:23.437Z,98858.38
2023-01-08T19:33:50.531Z,98862.75
2023-01-08T19:36:19.702Z,98866.25
2023-01-08T19:38:46.905Z,98848.75
2023-01-08T19:41:33.255Z,98838.25
2023-01-08T19:44:00.659Z,98851.38
2023-01-08T19:46:28.707Z,98846.97
2023-01-08T19:49:00.201Z,98841.72
2023-01-08T19:51:30.349Z,98839.09
2023-01-08T19:53:58.625Z,98830.34
2023-01-08T19:56:25.767Z,98822.47
2023-01-08T19:58:52.929Z,98835.59
2023-01-08T20:01:24.110Z,98831.19
2023-01-08T20:03:51.943Z,98825.94
2023-01-08T20:06:23.230Z,98811.91
2023-01-08T20:08:54.309Z,98802.25
2023-01-08T20:11:22.756Z,98796.13
2023-01-08T20:13:51.496Z,98790.00
2023-01-08T20:16:20.973Z,98785.63
2023-01-08T20:18:48.895Z,98779.50
2023-01-08T20:21:21.643Z,98776.88
2023-01-08T20:23:49.781Z,98776.03
2023-01-08T20:26:19.794Z,98769.91
2023-01-08T20:28:47.326Z,98775.16
2023-01-08T20:31:18.568Z,98769.91
2023-01-08T20:33:49.924Z,98765.53
2023-01-08T20:36:23.496Z,98768.16
2023-01-08T20:38:56.511Z,98762.88
2023-01-08T20:41:24.577Z,98759.38
2023-01-08T20:43:52.431Z,98752.34
2023-01-08T20:46:19.544Z,98753.25
2023-01-08T20:48:48.229Z,98743.59
2023-01-08T20:51:16.655Z,98747.09
2023-01-08T20:53:43.630Z,98741.84
2023-01-08T20:56:15.017Z,98723.44
2023-01-08T20:58:46.964Z,98726.06
2023-01-08T21:01:21.867Z,98721.69
2023-01-08T21:03:51.256Z,98719.03
2023-01-08T21:06:22.295Z,98719.06
2023-01-08T21:08:51.961Z,98710.28
2023-01-08T21:11:20.972Z,98712.06
2023-01-08T21:13:48.446Z,98705.97
2023-01-08T21:16:23.384Z,98703.34
2023-01-08T21:18:51.697Z,98707.69
2023-01-08T21:21:24.927Z,98712.97
2023-01-08T21:23:52.005Z,98701.53
2023-01-08T21:26:21.139Z,98703.31
2023-01-08T21:28:49.849Z,98693.66
2023-01-08T21:31:23.411Z,98685.75
2023-01-08T21:33:51.785Z,98690.16
2023-01-08T21:36:25.766Z,98676.13
2023-01-08T21:38:53.249Z,98670.00
2023-01-08T21:41:41.902Z,98678.75
2023-01-08T21:44:42.204Z,98676.09
2023-01-08T21:47:14.273Z,98675.22
2023-01-08T21:49:41.643Z,98676.09
2023-01-08T21:52:27.628Z,98665.56
2023-01-08T21:54:56.339Z,98646.25
2023-01-08T21:57:24.016Z,98644.50
2023-01-08T21:59:52.359Z,98638.38
2023-01-08T22:02:24.209Z,98636.59
2023-01-08T22:04:56.408Z,98623.44
2023-01-08T22:07:24.757Z,98619.06
2023-01-08T22:09:51.882Z,98612.94
2023-01-08T22:12:18.969Z,98617.28
2023-01-08T22:14:46.099Z,98603.28
2023-01-08T22:17:13.148Z,98612.91
2023-01-08T22:19:40.940Z,98602.38
2023-01-08T22:22:11.335Z,98597.09
2023-01-08T22:24:41.747Z,98597.97
2023-01-08T22:27:10.090Z,98589.19
2023-01-08T22:29:38.238Z,98593.53
2023-01-08T22:32:05.896Z,98591.78
2023-01-08T22:34:34.814Z,98592.63
2023-01-08T22:37:02.675Z,98590.03
2023-01-08T22:39:29.907Z,98586.47
2023-01-08T22:41:57.021Z,98591.72
2023-01-08T22:44:24.227Z,98588.19
2023-01-08T22:46:51.276Z,98587.31
2023-01-08T22:49:18.281Z,98593.41
2023-01-08T22:51:46.547Z,98586.41
2023-01-08T22:54:14.735Z,98588.16
2023-01-08T22:56:41.739Z,98588.19
2023-01-08T22:59:09.005Z,98586.41
2023-01-08T23:01:36.343Z,98588.16
2023-01-08T23:04:04.017Z,98585.53
2023-01-08T23:06:32.327Z,98585.50
2023-01-08T23:09:03.220Z,98578.47
2023-01-08T23:11:33.529Z,98562.72
2023-01-08T23:14:01.048Z,98551.28
2023-01-08T23:16:28.236Z,98557.44
2023-01-08T23:18:55.977Z,98544.25
2023-01-08T23:21:26.007Z,98545.13
2023-01-08T23:23:53.291Z,98542.50
2023-01-08T23:26:28.160Z,98540.75
2023-01-08T23:28:57.794Z,98536.34
2023-01-08T23:31:29.069Z,98532.00
2023-01-08T23:33:56.727Z,98522.28
2023-01-08T23:36:24.264Z,98528.41
2023-01-08T23:38:54.389Z,98522.22
2023-01-08T23:41:26.014Z,98509.03
2023-01-08T23:43:54.752Z,98503.78
2023-01-08T23:46:21.752Z,98505.50
2023-01-08T23:48:51.002Z,98508.13
2023-01-08T23:51:18.230Z,98491.44
2023-01-08T23:53:47.639Z,98478.31
2023-01-08T23:56:14.856Z,98470.38
2023-01-08T23:58:42.286Z,98471.22
